createdAt,value
2022-11-18T00:00:52.878Z,0.84
2022-11-18T00:01:56.167Z,0.89
2022-11-18T00:02:59.046Z,0.95
2022-11-18T00:04:01.898Z,1.05
2022-11-18T00:05:04.670Z,1.12
2022-11-18T00:06:16.146Z,0.87
2022-11-18T00:07:19.199Z,0.99
2022-11-18T00:08:21.924Z,1.18
2022-11-18T00:09:24.974Z,1.13
2022-11-18T00:10:28.366Z,1.22
2022-11-18T00:11:31.866Z,0.96
2022-11-18T00:12:34.725Z,0.90
2022-11-18T00:13:37.810Z,1.02
2022-11-18T00:14:40.900Z,1.24
2022-11-18T00:15:43.667Z,1.27
2022-11-18T00:16:46.540Z,1.35
2022-11-18T00:17:49.314Z,1.60
2022-11-18T00:18:52.391Z,1.22
2022-11-18T00:19:55.367Z,1.28
2022-11-18T00:20:58.134Z,1.10
2022-11-18T00:22:01.117Z,1.35
2022-11-18T00:23:04.197Z,1.35
2022-11-18T00:24:07.071Z,1.14
2022-11-18T00:25:09.841Z,1.60
2022-11-18T00:26:12.512Z,1.64
2022-11-18T00:27:15.526Z,1.24
2022-11-18T00:28:18.468Z,1.43
2022-11-18T00:29:21.591Z,1.38
2022-11-18T00:30:24.606Z,1.64
2022-11-18T00:31:27.805Z,1.46
2022-11-18T00:32:31.087Z,1.26
2022-11-18T00:33:34.168Z,1.08
2022-11-18T00:34:37.134Z,1.13
2022-11-18T00:35:41.262Z,1.44
2022-11-18T00:36:44.349Z,1.59
2022-11-18T00:37:47.197Z,1.48
2022-11-18T00:38:50.072Z,1.14
2022-11-18T00:39:52.742Z,1.22
2022-11-18T00:40:55.619Z,1.10
2022-11-18T00:41:58.396Z,0.93
2022-11-18T00:43:01.283Z,1.02
2022-11-18T00:44:09.346Z,1.10
2022-11-18T00:45:08.345Z,1.25
2022-11-18T00:46:11.530Z,1.42
2022-11-18T00:47:14.396Z,1.37
2022-11-18T00:48:17.384Z,1.08
2022-11-18T00:49:20.262Z,1.15
2022-11-18T00:50:23.030Z,1.08
2022-11-18T00:51:26.011Z,1.19
2022-11-18T00:52:28.772Z,1.22
2022-11-18T00:53:31.636Z,1.03
2022-11-18T00:54:34.720Z,1.17
2022-11-18T00:55:37.709Z,1.08
2022-11-18T00:56:40.386Z,1.39
2022-11-18T00:57:43.150Z,1.40
2022-11-18T00:58:46.234Z,1.51
2022-11-18T00:59:50.029Z,1.70
2022-11-18T01:00:52.964Z,1.57
2022-11-18T01:01:56.385Z,1.82
2022-11-18T01:02:59.471Z,1.31
2022-11-18T01:04:02.451Z,1.49
2022-11-18T01:05:05.623Z,1.47
2022-11-18T01:06:08.595Z,1.33
2022-11-18T01:07:11.979Z,1.23
2022-11-18T01:08:14.865Z,1.34
2022-11-18T01:09:18.390Z,1.42
2022-11-18T01:10:21.747Z,1.30
2022-11-18T01:11:24.817Z,1.27
2022-11-18T01:12:27.714Z,1.40
2022-11-18T01:13:30.571Z,1.38
2022-11-18T01:14:33.746Z,1.49
2022-11-18T01:15:37.132Z,1.22
2022-11-18T01:16:40.444Z,1.39
2022-11-18T01:17:45.047Z,1.40
2022-11-18T01:18:48.212Z,1.43
2022-11-18T01:19:51.209Z,1.46
2022-11-18T01:20:54.578Z,1.38
2022-11-18T01:21:57.661Z,1.49
2022-11-18T01:23:00.639Z,1.72
2022-11-18T01:24:03.418Z,1.62
2022-11-18T01:25:06.078Z,1.83
2022-11-18T01:26:09.067Z,1.42
2022-11-18T01:27:12.049Z,1.22
2022-11-18T01:28:18.872Z,1.32
2022-11-18T01:29:19.507Z,1.29
2022-11-18T01:30:22.301Z,1.09
2022-11-18T01:31:25.480Z,0.86
2022-11-18T01:32:28.350Z,0.88
2022-11-18T01:33:31.232Z,1.10
2022-11-18T01:34:34.001Z,1.36
2022-11-18T01:35:37.195Z,1.25
2022-11-18T01:36:40.152Z,1.39
2022-11-18T01:37:43.136Z,1.34
2022-11-18T01:38:46.410Z,1.44
2022-11-18T01:39:50.117Z,1.00
2022-11-18T01:40:53.196Z,0.75
2022-11-18T01:41:56.284Z,0.72
2022-11-18T01:42:59.353Z,0.75
2022-11-18T01:44:02.346Z,0.73
2022-11-18T01:45:05.431Z,0.71
2022-11-18T01:46:08.392Z,1.08
2022-11-18T01:47:12.303Z,1.26
2022-11-18T01:48:15.268Z,1.57
2022-11-18T01:49:18.757Z,1.03
2022-11-18T01:50:21.827Z,1.02
2022-11-18T01:51:24.694Z,3.88
2022-11-18T01:52:27.795Z,1.38
2022-11-18T01:53:30.652Z,1.24
2022-11-18T01:54:33.227Z,1.20
2022-11-18T01:55:36.228Z,1.22
2022-11-18T01:56:38.984Z,1.12
2022-11-18T01:57:42.155Z,1.32
2022-11-18T01:58:45.785Z,1.43
2022-11-18T01:59:48.923Z,1.19
2022-11-18T02:00:52.123Z,1.16
2022-11-18T02:01:59.457Z,1.18
2022-11-18T02:02:59.516Z,1.08
2022-11-18T02:04:02.371Z,1.15
2022-11-18T02:05:05.351Z,1.14
2022-11-18T02:06:08.532Z,1.42
2022-11-18T02:07:11.535Z,1.29
2022-11-18T02:08:14.891Z,1.23
2022-11-18T02:09:18.411Z,1.30
2022-11-18T02:10:24.638Z,1.23
2022-11-18T02:11:27.608Z,1.38
2022-11-18T02:12:30.591Z,1.45
2022-11-18T02:13:34.102Z,1.61
2022-11-18T02:14:37.162Z,1.27
2022-11-18T02:15:40.136Z,1.08
2022-11-18T02:16:43.116Z,1.02
2022-11-18T02:17:46.304Z,1.19
2022-11-18T02:18:50.194Z,1.65
2022-11-18T02:19:53.381Z,1.47
2022-11-18T02:20:56.765Z,1.54
2022-11-18T02:21:59.741Z,1.77
2022-11-18T02:23:03.028Z,1.56
2022-11-18T02:24:05.993Z,1.64
2022-11-18T02:25:08.978Z,1.74
2022-11-18T02:26:12.164Z,1.98
2022-11-18T02:27:15.348Z,1.69
2022-11-18T02:28:18.212Z,1.56
2022-11-18T02:29:21.294Z,1.45
2022-11-18T02:30:24.695Z,1.59
2022-11-18T02:31:27.766Z,1.50
2022-11-18T02:32:30.845Z,1.67
2022-11-18T02:33:33.822Z,1.22
2022-11-18T02:34:53.191Z,1.53
2022-11-18T02:35:55.960Z,1.59
2022-11-18T02:36:58.929Z,1.97
2022-11-18T02:38:01.801Z,1.64
2022-11-18T02:39:05.188Z,1.50
2022-11-18T02:40:08.173Z,1.34
2022-11-18T02:41:10.933Z,1.41
2022-11-18T02:42:13.719Z,1.22
2022-11-18T02:43:16.579Z,1.35
2022-11-18T02:44:19.452Z,1.41
2022-11-18T02:45:22.332Z,1.44
2022-11-18T02:46:25.102Z,1.57
2022-11-18T02:47:27.869Z,1.36
2022-11-18T02:48:31.164Z,1.59
2022-11-18T02:49:34.134Z,1.68
2022-11-18T02:50:37.125Z,1.85
2022-11-18T02:51:40.090Z,1.15
2022-11-18T02:52:42.968Z,1.49
2022-11-18T02:53:45.942Z,1.44
2022-11-18T02:54:48.827Z,1.55
2022-11-18T02:55:51.690Z,1.59
2022-11-18T02:56:54.772Z,1.50
2022-11-18T02:57:57.745Z,1.62
2022-11-18T02:59:00.835Z,1.75
2022-11-18T03:00:03.811Z,1.58
2022-11-18T03:01:06.819Z,1.43
2022-11-18T03:02:09.864Z,1.47
2022-11-18T03:03:12.632Z,1.33
2022-11-18T03:04:15.722Z,1.69
2022-11-18T03:05:18.688Z,1.64
2022-11-18T03:06:21.467Z,1.45
2022-11-18T03:07:24.557Z,1.64
2022-11-18T03:08:27.214Z,1.60
2022-11-18T03:09:30.286Z,1.69
2022-11-18T03:10:32.953Z,1.65
2022-11-18T03:11:35.837Z,1.68
2022-11-18T03:12:39.321Z,1.58
2022-11-18T03:13:42.610Z,1.47
2022-11-18T03:14:45.797Z,1.68
2022-11-18T03:15:49.069Z,1.55
2022-11-18T03:16:52.156Z,1.53
2022-11-18T03:17:55.130Z,1.66
2022-11-18T03:18:58.820Z,1.29
2022-11-18T03:20:02.001Z,1.38
2022-11-18T03:21:04.980Z,1.27
2022-11-18T03:22:08.776Z,1.48
2022-11-18T03:23:11.857Z,1.16
2022-11-18T03:24:15.054Z,1.22
2022-11-18T03:25:17.935Z,1.29
2022-11-18T03:26:20.996Z,1.38
2022-11-18T03:27:24.787Z,1.59
2022-11-18T03:28:27.458Z,1.54
2022-11-18T03:29:30.438Z,1.48
2022-11-18T03:30:33.219Z,1.08
2022-11-18T03:31:36.077Z,1.12
2022-11-18T03:32:39.276Z,1.18
2022-11-18T03:33:42.557Z,1.25
2022-11-18T03:34:45.989Z,1.20
2022-11-18T03:35:49.434Z,1.23
2022-11-18T03:36:52.850Z,1.39
2022-11-18T03:37:57.014Z,2.87
2022-11-18T03:39:00.413Z,3.57
2022-11-18T03:40:03.183Z,1.22
2022-11-18T03:41:06.153Z,1.15
2022-11-18T03:42:09.448Z,1.22
2022-11-18T03:43:12.412Z,1.34
2022-11-18T03:44:15.184Z,1.30
2022-11-18T03:45:18.265Z,1.11
2022-11-18T03:46:21.344Z,1.25
2022-11-18T03:47:24.534Z,1.55
2022-11-18T03:48:27.505Z,1.64
2022-11-18T03:49:30.388Z,1.51
2022-11-18T03:50:32.948Z,1.64
2022-11-18T03:51:35.952Z,1.26
2022-11-18T03:52:39.056Z,1.27
2022-11-18T03:53:53.671Z,1.12
2022-11-18T03:54:57.143Z,1.36
2022-11-18T03:56:00.013Z,1.28
2022-11-18T03:57:02.788Z,1.93
2022-11-18T03:58:05.673Z,3.10
2022-11-18T03:59:08.539Z,2.71
2022-11-18T04:00:11.628Z,2.52
2022-11-18T04:01:14.489Z,2.12
2022-11-18T04:02:17.552Z,2.36
2022-11-18T04:03:21.064Z,2.12
2022-11-18T04:04:24.356Z,1.79
2022-11-18T04:05:27.539Z,2.69
2022-11-18T04:06:32.153Z,1.53
2022-11-18T04:07:35.084Z,1.40
2022-11-18T04:08:38.621Z,1.38
2022-11-18T04:09:41.393Z,1.45
2022-11-18T04:10:44.589Z,1.25
2022-11-18T04:11:47.228Z,1.46
2022-11-18T04:12:50.205Z,1.49
2022-11-18T04:14:02.819Z,1.62
2022-11-18T04:15:06.093Z,1.42
2022-11-18T04:16:09.488Z,1.13
2022-11-18T04:17:12.357Z,1.16
2022-11-18T04:18:15.546Z,1.02
2022-11-18T04:19:19.067Z,1.14
2022-11-18T04:20:22.314Z,1.21
2022-11-18T04:21:25.411Z,1.19
2022-11-18T04:22:29.004Z,1.00
2022-11-18T04:23:32.163Z,0.99
2022-11-18T04:24:35.155Z,1.29
2022-11-18T04:25:38.120Z,1.35
2022-11-18T04:26:41.627Z,1.46
2022-11-18T04:27:44.799Z,1.26
2022-11-18T04:28:47.871Z,1.46
2022-11-18T04:29:51.566Z,1.21
2022-11-18T04:30:54.430Z,1.39
2022-11-18T04:31:58.339Z,1.28
2022-11-18T04:33:02.065Z,1.27
2022-11-18T04:34:05.109Z,1.38
2022-11-18T04:35:12.547Z,1.22
2022-11-18T04:36:16.294Z,1.66
2022-11-18T04:37:19.872Z,2.05
2022-11-18T04:38:25.230Z,1.46
2022-11-18T04:39:28.298Z,1.68
2022-11-18T04:40:32.205Z,1.75
2022-11-18T04:41:35.367Z,1.38
2022-11-18T04:42:38.137Z,1.42
2022-11-18T04:43:41.224Z,1.45
2022-11-18T04:44:44.509Z,1.27
2022-11-18T04:45:47.379Z,1.34
2022-11-18T04:46:50.252Z,1.60
2022-11-18T04:47:53.522Z,1.58
2022-11-18T04:48:57.438Z,1.25
2022-11-18T04:50:00.305Z,1.40
2022-11-18T04:51:03.186Z,1.42
2022-11-18T04:52:06.580Z,1.85
2022-11-18T04:53:09.651Z,1.52
2022-11-18T04:54:12.525Z,1.40
2022-11-18T04:55:15.505Z,1.36
2022-11-18T04:56:18.664Z,1.40
2022-11-18T04:57:21.565Z,1.52
2022-11-18T04:58:24.543Z,1.61
2022-11-18T04:59:27.840Z,2.06
2022-11-18T05:00:30.796Z,1.96
2022-11-18T05:01:34.962Z,1.83
2022-11-18T05:02:37.808Z,1.89
2022-11-18T05:03:40.662Z,1.43
2022-11-18T05:04:43.525Z,1.47
2022-11-18T05:05:52.487Z,1.29
2022-11-18T05:06:55.496Z,1.45
2022-11-18T05:07:58.397Z,1.24
2022-11-18T05:09:01.008Z,1.61
2022-11-18T05:10:04.368Z,1.47
2022-11-18T05:11:07.121Z,1.60
2022-11-18T05:12:09.998Z,1.47
2022-11-18T05:13:13.336Z,1.40
2022-11-18T05:14:16.370Z,1.42
2022-11-18T05:15:19.356Z,1.37
2022-11-18T05:16:22.521Z,1.26
2022-11-18T05:17:25.811Z,1.56
2022-11-18T05:18:28.887Z,1.56
2022-11-18T05:19:31.696Z,1.51
2022-11-18T05:20:38.794Z,1.53
2022-11-18T05:21:39.045Z,1.22
2022-11-18T05:22:42.226Z,1.35
2022-11-18T05:23:45.521Z,1.32
2022-11-18T05:24:48.503Z,1.61
2022-11-18T05:25:51.570Z,1.55
2022-11-18T05:26:55.682Z,1.79
2022-11-18T05:27:59.376Z,1.59
2022-11-18T05:29:02.237Z,1.46
2022-11-18T05:30:05.417Z,1.51
2022-11-18T05:31:08.607Z,1.60
2022-11-18T05:32:11.595Z,1.32
2022-11-18T05:33:14.656Z,1.62
2022-11-18T05:34:18.145Z,1.32
2022-11-18T05:35:24.104Z,1.79
2022-11-18T05:36:27.793Z,1.81
2022-11-18T05:37:31.183Z,1.75
2022-11-18T05:38:33.950Z,1.92
2022-11-18T05:39:37.050Z,1.65
2022-11-18T05:40:40.001Z,1.74
2022-11-18T05:41:43.599Z,1.47
2022-11-18T05:42:46.771Z,1.60
2022-11-18T05:43:49.977Z,1.45
2022-11-18T05:44:57.842Z,1.78
2022-11-18T05:45:57.546Z,1.98
2022-11-18T05:47:00.535Z,1.53
2022-11-18T05:48:06.268Z,1.62
2022-11-18T05:49:10.271Z,1.79
2022-11-18T05:50:16.121Z,1.46
2022-11-18T05:51:28.343Z,1.56
2022-11-18T05:52:32.015Z,1.63
2022-11-18T05:53:37.458Z,1.66
2022-11-18T05:54:40.534Z,1.62
2022-11-18T05:55:43.604Z,1.69
2022-11-18T05:56:46.779Z,1.75
2022-11-18T05:57:49.800Z,1.88
2022-11-18T05:58:53.137Z,2.01
2022-11-18T05:59:55.915Z,1.79
2022-11-18T06:00:59.107Z,2.12
2022-11-18T06:02:03.107Z,1.72
2022-11-18T06:03:06.295Z,1.76
2022-11-18T06:04:09.971Z,1.59
2022-11-18T06:05:15.519Z,1.32
2022-11-18T06:06:18.703Z,1.40
2022-11-18T06:07:22.307Z,1.49
2022-11-18T06:08:24.944Z,1.71
2022-11-18T06:09:28.146Z,1.85
2022-11-18T06:10:31.242Z,1.15
2022-11-18T06:11:34.504Z,1.52
2022-11-18T06:12:37.582Z,1.84
2022-11-18T06:13:46.839Z,1.66
2022-11-18T06:15:00.453Z,1.53
2022-11-18T06:16:13.542Z,1.54
2022-11-18T06:17:22.360Z,1.46
2022-11-18T06:18:25.194Z,1.29
2022-11-18T06:19:37.014Z,1.47
2022-11-18T06:20:52.028Z,1.34
2022-11-18T06:21:58.134Z,1.27
2022-11-18T06:23:01.137Z,1.21
2022-11-18T06:24:18.485Z,1.11
2022-11-18T06:25:26.721Z,1.52
2022-11-18T06:27:56.464Z,1.40
2022-11-18T06:28:59.917Z,1.66
2022-11-18T06:30:02.689Z,1.84
2022-11-18T06:31:05.669Z,1.86
2022-11-18T06:32:08.954Z,1.75
2022-11-18T06:33:12.135Z,1.62
2022-11-18T06:34:15.329Z,1.52
2022-11-18T06:35:18.192Z,1.36
2022-11-18T06:36:25.017Z,1.42
2022-11-18T06:37:28.345Z,1.53
2022-11-18T06:38:31.833Z,1.84
2022-11-18T06:39:37.469Z,1.68
2022-11-18T06:40:40.693Z,1.27
2022-11-18T06:41:44.549Z,1.30
2022-11-18T06:42:47.938Z,1.26
2022-11-18T06:43:50.810Z,1.05
2022-11-18T06:44:54.110Z,1.17
2022-11-18T06:45:57.065Z,1.33
2022-11-18T06:47:00.364Z,1.48
2022-11-18T06:48:04.792Z,1.17
2022-11-18T06:49:10.328Z,1.31
2022-11-18T06:50:14.003Z,1.39
2022-11-18T06:51:17.612Z,1.30
2022-11-18T06:52:20.788Z,1.56
2022-11-18T06:53:25.902Z,1.46
2022-11-18T06:54:31.634Z,1.43
2022-11-18T06:55:34.948Z,1.46
2022-11-18T06:56:38.123Z,2.12
2022-11-18T06:57:40.893Z,1.86
2022-11-18T06:58:43.499Z,1.52
2022-11-18T06:59:48.269Z,1.64
2022-11-18T07:00:51.435Z,1.59
2022-11-18T07:01:54.432Z,1.95
2022-11-18T07:03:01.108Z,1.92
2022-11-18T07:04:04.072Z,1.59
2022-11-18T07:05:06.735Z,1.80
2022-11-18T07:06:10.064Z,2.06
2022-11-18T07:07:13.280Z,1.78
2022-11-18T07:08:16.390Z,1.75
2022-11-18T07:09:23.261Z,1.67
2022-11-18T07:10:31.884Z,2.10
2022-11-18T07:11:34.945Z,2.58
2022-11-18T07:12:38.548Z,2.52
2022-11-18T07:13:43.744Z,1.69
2022-11-18T07:14:47.357Z,2.36
2022-11-18T07:15:50.434Z,2.69
2022-11-18T07:16:53.312Z,2.56
2022-11-18T07:17:56.455Z,2.80
2022-11-18T07:19:00.102Z,2.64
2022-11-18T07:20:05.523Z,1.82
2022-11-18T07:21:10.404Z,2.00
2022-11-18T07:22:13.737Z,2.19
2022-11-18T07:23:17.048Z,2.38
2022-11-18T07:24:19.878Z,1.79
2022-11-18T07:25:26.350Z,1.32
2022-11-18T07:26:29.221Z,1.79
2022-11-18T07:27:38.365Z,1.97
2022-11-18T07:28:41.113Z,1.69
2022-11-18T07:29:44.292Z,1.48
2022-11-18T07:30:47.587Z,1.36
2022-11-18T07:31:50.659Z,1.34
2022-11-18T07:32:54.063Z,1.54
2022-11-18T07:34:01.730Z,2.15
2022-11-18T07:35:04.499Z,2.63
2022-11-18T07:36:08.115Z,2.11
2022-11-18T07:37:10.760Z,2.08
2022-11-18T07:38:14.057Z,2.43
2022-11-18T07:39:17.925Z,3.12
2022-11-18T07:40:23.178Z,2.09
2022-11-18T07:41:26.146Z,2.26
2022-11-18T07:42:29.030Z,2.59
2022-11-18T07:43:33.338Z,2.85
2022-11-18T07:44:36.125Z,2.23
2022-11-18T07:45:38.779Z,2.00
2022-11-18T07:46:41.557Z,1.75
2022-11-18T07:47:44.222Z,2.30
2022-11-18T07:48:47.200Z,2.61
2022-11-18T07:49:50.179Z,2.40
2022-11-18T07:50:52.950Z,2.40
2022-11-18T07:51:55.927Z,2.72
2022-11-18T07:52:59.015Z,2.78
2022-11-18T07:54:01.985Z,2.32
2022-11-18T07:55:05.065Z,2.38
2022-11-18T07:56:08.552Z,2.41
2022-11-18T07:57:11.424Z,2.19
2022-11-18T07:58:14.411Z,1.84
2022-11-18T07:59:17.766Z,2.31
2022-11-18T08:00:21.164Z,2.79
2022-11-18T08:01:24.231Z,3.35
2022-11-18T08:02:27.025Z,1.95
2022-11-18T08:03:30.162Z,2.78
2022-11-18T08:04:32.974Z,3.25
2022-11-18T08:05:35.907Z,3.11
2022-11-18T08:06:38.643Z,2.82
2022-11-18T08:07:41.681Z,2.31
2022-11-18T08:08:44.901Z,3.02
2022-11-18T08:09:48.062Z,2.97
2022-11-18T08:10:51.078Z,3.42
2022-11-18T08:11:54.449Z,3.04
2022-11-18T08:12:57.608Z,3.08
2022-11-18T08:14:00.713Z,2.91
2022-11-18T08:15:04.097Z,2.60
2022-11-18T08:16:07.157Z,3.65
2022-11-18T08:17:10.344Z,3.05
2022-11-18T08:18:14.063Z,2.99
2022-11-18T08:19:17.459Z,2.32
2022-11-18T08:20:21.332Z,2.20
2022-11-18T08:21:24.623Z,2.86
2022-11-18T08:22:27.589Z,1.93
2022-11-18T08:23:33.979Z,1.99
2022-11-18T08:24:35.084Z,1.91
2022-11-18T08:25:37.853Z,2.22
2022-11-18T08:26:41.235Z,2.71
2022-11-18T08:27:44.326Z,3.92
2022-11-18T08:28:47.758Z,4.19
2022-11-18T08:29:50.884Z,4.52
2022-11-18T08:30:54.073Z,3.41
2022-11-18T08:31:57.033Z,2.33
2022-11-18T08:33:00.338Z,2.65
2022-11-18T08:34:04.381Z,2.63
2022-11-18T08:35:10.978Z,2.80
2022-11-18T08:36:12.745Z,3.14
2022-11-18T08:37:15.621Z,3.14
2022-11-18T08:38:18.675Z,2.68
2022-11-18T08:39:21.867Z,3.08
2022-11-18T08:40:25.323Z,2.92
2022-11-18T08:41:29.270Z,2.97
2022-11-18T08:42:34.480Z,2.74
2022-11-18T08:43:37.265Z,2.39
2022-11-18T08:44:41.787Z,2.72
2022-11-18T08:45:44.955Z,3.07
2022-11-18T08:46:47.950Z,3.32
2022-11-18T08:47:51.122Z,2.96
2022-11-18T08:48:54.412Z,1.80
2022-11-18T08:49:57.698Z,2.47
2022-11-18T08:51:00.976Z,2.75
2022-11-18T08:52:04.048Z,2.22
2022-11-18T08:53:07.333Z,2.32
2022-11-18T08:54:10.836Z,2.04
2022-11-18T08:55:14.022Z,2.56
2022-11-18T08:56:17.077Z,3.61
2022-11-18T08:58:41.162Z,3.27
2022-11-18T08:59:44.451Z,3.15
2022-11-18T09:00:48.271Z,3.21
2022-11-18T09:01:51.501Z,3.58
2022-11-18T09:02:55.423Z,3.16
2022-11-18T09:03:58.507Z,2.76
2022-11-18T09:05:01.592Z,2.50
2022-11-18T09:06:04.741Z,2.32
2022-11-18T09:07:07.705Z,2.58
2022-11-18T09:08:11.035Z,2.78
2022-11-18T09:09:14.840Z,2.32
2022-11-18T09:10:21.688Z,2.75
2022-11-18T09:11:25.586Z,3.19
2022-11-18T09:12:29.086Z,3.30
2022-11-18T09:15:40.779Z,4.20
2022-11-18T09:16:43.867Z,5.33
2022-11-18T09:17:47.347Z,4.30
2022-11-18T09:18:50.330Z,3.13
2022-11-18T09:19:53.101Z,3.46
2022-11-18T09:20:56.788Z,4.24
2022-11-18T09:21:59.772Z,6.06
2022-11-18T09:23:03.162Z,4.21
2022-11-18T09:24:09.616Z,5.49
2022-11-18T09:25:16.275Z,5.91
2022-11-18T09:26:19.356Z,4.56
2022-11-18T09:27:22.572Z,3.75
2022-11-18T09:28:25.757Z,3.28
2022-11-18T09:29:28.811Z,3.77
2022-11-18T09:30:32.388Z,2.84
2022-11-18T09:31:38.451Z,2.99
2022-11-18T09:32:44.185Z,3.63
2022-11-18T09:33:47.268Z,3.27
2022-11-18T09:34:50.757Z,3.08
2022-11-18T09:35:56.735Z,3.22
2022-11-18T09:36:59.997Z,3.50
2022-11-18T09:38:02.977Z,2.80
2022-11-18T09:39:06.513Z,2.92
2022-11-18T09:40:09.635Z,2.97
2022-11-18T09:41:12.302Z,3.08
2022-11-18T09:42:15.714Z,3.03
2022-11-18T09:43:19.188Z,3.25
2022-11-18T09:44:22.874Z,2.78
2022-11-18T09:45:26.164Z,2.94
2022-11-18T09:46:30.045Z,3.29
2022-11-18T09:47:33.125Z,3.30
2022-11-18T09:48:36.120Z,3.54
2022-11-18T09:49:39.302Z,4.48
2022-11-18T09:50:49.512Z,3.30
2022-11-18T09:51:47.298Z,3.84
2022-11-18T09:52:50.375Z,3.72
2022-11-18T09:53:53.250Z,3.76
2022-11-18T09:54:57.054Z,3.35
2022-11-18T09:56:00.606Z,2.97
2022-11-18T09:57:03.817Z,2.77
2022-11-18T09:58:07.164Z,3.34
2022-11-18T09:59:10.900Z,3.28
2022-11-18T10:00:15.931Z,2.81
2022-11-18T10:01:19.138Z,2.43
2022-11-18T10:02:21.989Z,2.90
2022-11-18T10:03:24.764Z,2.71
2022-11-18T10:04:27.726Z,2.18
2022-11-18T10:05:30.921Z,2.17
2022-11-18T10:06:33.902Z,2.05
2022-11-18T10:07:38.603Z,2.00
2022-11-18T10:08:41.496Z,2.20
2022-11-18T10:09:44.455Z,2.32
2022-11-18T10:10:48.556Z,2.04
2022-11-18T10:11:52.272Z,2.09
2022-11-18T10:12:55.747Z,2.45
2022-11-18T10:13:58.973Z,2.55
2022-11-18T10:15:03.440Z,2.25
2022-11-18T10:16:06.424Z,2.05
2022-11-18T10:17:09.486Z,2.30
2022-11-18T10:18:14.052Z,2.85
2022-11-18T10:19:16.745Z,2.96
2022-11-18T10:20:20.227Z,3.32
2022-11-18T10:21:23.142Z,2.64
2022-11-18T10:22:26.123Z,2.62
2022-11-18T10:23:28.693Z,2.52
2022-11-18T10:24:32.191Z,3.08
2022-11-18T10:25:35.052Z,3.11
2022-11-18T10:26:37.728Z,2.90
2022-11-18T10:27:40.587Z,2.58
2022-11-18T10:28:43.386Z,2.29
2022-11-18T10:29:47.495Z,2.50
2022-11-18T10:30:50.471Z,2.01
2022-11-18T10:31:53.223Z,2.27
2022-11-18T10:32:56.730Z,2.48
2022-11-18T10:34:00.217Z,2.54
2022-11-18T10:35:03.080Z,2.52
2022-11-18T10:36:06.257Z,2.13
2022-11-18T10:37:09.544Z,2.73
2022-11-18T10:38:13.351Z,2.33
2022-11-18T10:39:19.116Z,2.40
2022-11-18T10:40:22.176Z,2.22
2022-11-18T10:41:26.999Z,2.05
2022-11-18T10:42:30.259Z,2.02
2022-11-18T10:43:37.529Z,2.04
2022-11-18T10:44:40.234Z,2.06
2022-11-18T10:45:45.346Z,2.08
2022-11-18T10:46:48.309Z,1.95
2022-11-18T10:47:51.705Z,2.41
2022-11-18T10:48:55.609Z,2.18
2022-11-18T10:49:58.584Z,2.47
2022-11-18T10:51:01.380Z,2.02
2022-11-18T10:52:04.637Z,2.29
2022-11-18T10:53:07.714Z,1.81
2022-11-18T10:54:10.914Z,2.02
2022-11-18T10:55:19.928Z,2.18
2022-11-18T10:56:23.420Z,2.02
2022-11-18T10:57:26.734Z,2.31
2022-11-18T10:58:32.649Z,2.41
2022-11-18T10:59:37.482Z,1.98
2022-11-18T11:00:40.944Z,2.06
2022-11-18T11:01:43.967Z,1.79
2022-11-18T11:02:47.211Z,2.14
2022-11-18T11:03:50.594Z,1.88
2022-11-18T11:04:54.082Z,1.94
2022-11-18T11:05:57.386Z,2.29
2022-11-18T11:07:01.074Z,2.06
2022-11-18T11:08:34.306Z,1.95
2022-11-18T11:09:08.873Z,2.00
2022-11-18T11:10:12.146Z,2.03
2022-11-18T11:11:16.038Z,2.04
2022-11-18T11:12:19.544Z,1.69
2022-11-18T11:13:22.817Z,2.12
2022-11-18T11:14:26.937Z,1.76
2022-11-18T11:15:29.886Z,1.95
2022-11-18T11:17:53.844Z,1.94
2022-11-18T11:18:56.742Z,1.68
2022-11-18T11:20:02.282Z,2.08
2022-11-18T11:21:05.682Z,1.96
2022-11-18T11:22:09.165Z,1.86
2022-11-18T11:23:12.347Z,1.96
2022-11-18T11:24:17.153Z,1.95
2022-11-18T11:25:21.181Z,2.11
2022-11-18T11:28:36.749Z,1.97
2022-11-18T11:29:40.024Z,2.00
2022-11-18T11:30:45.317Z,1.91
2022-11-18T11:31:47.859Z,1.99
2022-11-18T11:32:51.234Z,2.17
2022-11-18T11:33:54.390Z,2.12
2022-11-18T11:34:57.575Z,1.82
2022-11-18T11:36:01.178Z,2.10
2022-11-18T11:37:04.569Z,1.91
2022-11-18T11:38:07.423Z,2.08
2022-11-18T11:39:11.233Z,2.15
2022-11-18T11:40:14.100Z,2.21
2022-11-18T11:41:17.482Z,1.72
2022-11-18T11:42:20.467Z,1.81
2022-11-18T11:43:23.857Z,1.99
2022-11-18T11:44:27.030Z,1.82
2022-11-18T11:45:30.010Z,1.75
2022-11-18T11:46:32.990Z,1.98
2022-11-18T11:47:35.659Z,1.91
2022-11-18T11:48:38.967Z,1.95
2022-11-18T11:49:42.155Z,2.07
2022-11-18T11:50:49.600Z,1.88
2022-11-18T11:51:49.938Z,1.57
2022-11-18T11:52:53.288Z,1.57
2022-11-18T11:53:57.195Z,1.88
2022-11-18T11:55:00.484Z,1.82
2022-11-18T11:56:04.932Z,1.88
2022-11-18T11:57:08.061Z,1.72
2022-11-18T11:58:11.764Z,1.65
2022-11-18T11:59:16.583Z,1.84
2022-11-18T12:00:20.475Z,2.24
2022-11-18T12:01:23.454Z,2.20
2022-11-18T12:02:27.417Z,2.11
2022-11-18T12:03:34.340Z,2.19
2022-11-18T12:04:37.605Z,2.09
2022-11-18T12:07:01.778Z,2.21
2022-11-18T12:08:05.490Z,2.10
2022-11-18T12:09:08.850Z,2.26
2022-11-18T12:10:12.052Z,2.15
2022-11-18T12:11:15.543Z,2.00
2022-11-18T12:12:19.453Z,2.08
2022-11-18T12:13:23.334Z,1.75
2022-11-18T12:14:26.523Z,2.16
2022-11-18T12:15:29.799Z,2.15
2022-11-18T12:16:33.310Z,2.15
2022-11-18T12:17:36.886Z,2.18
2022-11-18T12:18:39.872Z,1.83
2022-11-18T12:19:42.736Z,1.83
2022-11-18T12:20:46.325Z,1.88
2022-11-18T12:21:50.223Z,1.97
2022-11-18T12:22:54.535Z,2.31
2022-11-18T12:23:58.958Z,2.40
2022-11-18T12:25:02.131Z,2.17
2022-11-18T12:26:05.632Z,2.04
2022-11-18T12:27:08.911Z,2.03
2022-11-18T12:28:12.391Z,2.13
2022-11-18T12:29:18.939Z,2.14
2022-11-18T12:30:26.132Z,2.01
2022-11-18T12:31:37.194Z,1.85
2022-11-18T12:32:40.538Z,2.04
2022-11-18T12:33:53.911Z,1.96
2022-11-18T12:34:56.995Z,2.20
2022-11-18T12:36:00.477Z,2.11
2022-11-18T12:37:03.662Z,2.03
2022-11-18T12:38:07.051Z,1.74
2022-11-18T12:39:10.426Z,2.08
2022-11-18T12:40:21.503Z,1.80
2022-11-18T12:41:28.466Z,2.01
2022-11-18T12:43:52.537Z,1.99
2022-11-18T12:45:05.271Z,2.10
2022-11-18T12:46:15.617Z,2.16
2022-11-18T12:47:18.912Z,2.24
2022-11-18T12:48:33.454Z,2.12
2022-11-18T12:49:37.236Z,1.89
2022-11-18T12:50:41.034Z,2.18
2022-11-18T12:51:44.436Z,1.88
2022-11-18T12:52:47.827Z,2.01
2022-11-18T12:55:14.953Z,1.94
2022-11-18T12:59:00.535Z,2.18
2022-11-18T13:00:03.821Z,1.71
2022-11-18T13:01:07.707Z,2.12
2022-11-18T13:02:10.696Z,2.33
2022-11-18T13:03:13.882Z,2.27
2022-11-18T13:05:49.067Z,1.97
2022-11-18T13:06:57.669Z,2.06
2022-11-18T13:08:01.123Z,2.25
2022-11-18T13:09:06.348Z,2.08
2022-11-18T13:11:33.808Z,2.06
2022-11-18T13:12:36.482Z,2.09
2022-11-18T13:13:44.877Z,2.19
2022-11-18T13:14:53.397Z,1.93
2022-11-18T13:15:56.685Z,2.14
2022-11-18T13:18:23.414Z,2.33
2022-11-18T13:19:36.015Z,2.28
2022-11-18T13:21:59.892Z,2.32
2022-11-18T13:23:02.563Z,2.35
2022-11-18T13:24:13.335Z,2.52
2022-11-18T13:25:16.226Z,2.63
2022-11-18T13:26:22.144Z,2.55
2022-11-18T13:27:25.829Z,2.67
2022-11-18T13:28:33.839Z,2.59
2022-11-18T13:29:38.398Z,2.76
2022-11-18T13:32:03.353Z,2.94
2022-11-18T13:33:06.940Z,2.74
2022-11-18T13:34:15.219Z,3.00
2022-11-18T13:36:38.907Z,2.59
2022-11-18T13:37:41.997Z,2.62
2022-11-18T13:38:45.087Z,2.29
2022-11-18T13:39:51.624Z,2.39
2022-11-18T13:40:55.219Z,2.15
2022-11-18T13:41:58.196Z,2.31
2022-11-18T13:43:07.727Z,2.38
2022-11-18T13:44:13.569Z,2.50
2022-11-18T13:45:16.863Z,2.61
2022-11-18T13:46:20.552Z,2.51
2022-11-18T13:47:24.550Z,2.57
2022-11-18T13:48:27.947Z,2.66
2022-11-18T13:49:31.412Z,2.22
2022-11-18T13:50:34.508Z,2.24
2022-11-18T13:52:58.280Z,2.45
2022-11-18T13:54:01.169Z,2.40
2022-11-18T13:55:04.841Z,2.69
2022-11-18T13:56:08.022Z,3.24
2022-11-18T13:57:11.407Z,3.05
2022-11-18T13:58:14.495Z,2.87
2022-11-18T13:59:18.608Z,3.00
2022-11-18T14:00:22.081Z,3.01
2022-11-18T14:01:25.616Z,2.65
2022-11-18T14:02:28.956Z,2.51
2022-11-18T14:03:32.262Z,2.55
2022-11-18T14:04:36.134Z,2.25
2022-11-18T14:05:39.844Z,2.68
2022-11-18T14:06:42.615Z,2.54
2022-11-18T14:07:45.760Z,2.70
2022-11-18T14:08:48.760Z,2.97
2022-11-18T14:09:51.632Z,3.25
2022-11-18T14:10:54.514Z,3.12
2022-11-18T14:11:57.385Z,3.12
2022-11-18T14:13:00.462Z,3.46
2022-11-18T14:14:03.240Z,3.52
2022-11-18T14:15:06.217Z,3.34
2022-11-18T14:16:09.192Z,3.62
2022-11-18T14:17:12.176Z,3.45
2022-11-18T14:18:15.240Z,3.94
2022-11-18T14:19:19.315Z,3.80
2022-11-18T14:20:22.535Z,3.27
2022-11-18T14:21:25.814Z,3.22
2022-11-18T14:22:29.408Z,2.98
2022-11-18T14:23:32.487Z,3.36
2022-11-18T14:24:35.771Z,3.26
2022-11-18T14:25:38.956Z,3.18
2022-11-18T14:26:42.750Z,3.35
2022-11-18T14:27:45.730Z,3.26
2022-11-18T14:28:49.120Z,3.32
2022-11-18T14:29:52.192Z,3.12
2022-11-18T14:30:55.573Z,2.73
2022-11-18T14:31:58.672Z,2.58
2022-11-18T14:33:01.843Z,2.42